createdAt,value
2018-11-03T00:01:06.315Z,79.84
2018-11-03T00:05:10.148Z,79.04
2018-11-03T00:09:23.810Z,78.78
2018-11-03T00:13:31.423Z,78.61
2018-11-03T00:17:35.194Z,78.27
2018-11-03T00:21:38.710Z,78.01
2018-11-03T00:25:49.522Z,77.64
2018-11-03T00:29:53.215Z,77.32
2018-11-03T00:33:56.892Z,77.05
2018-11-03T00:38:00.630Z,76.91
2018-11-03T00:42:04.360Z,76.93
2018-11-03T00:46:25.327Z,76.67
2018-11-03T00:50:33.963Z,76.39
2018-11-03T00:54:37.733Z,76.19
2018-11-03T00:58:41.796Z,75.97
2018-11-03T01:02:48.898Z,76.29
2018-11-03T01:06:52.618Z,76.22
2018-11-03T01:10:58.789Z,76.31
2018-11-03T01:15:02.500Z,76.28
2018-11-03T01:19:06.212Z,76.32
2018-11-03T01:23:14.044Z,76.12
2018-11-03T01:27:20.956Z,76.19
2018-11-03T01:31:31.643Z,75.97
2018-11-03T01:35:36.711Z,76.15
2018-11-03T01:39:41.328Z,76.06
2018-11-03T01:43:45.039Z,75.90
2018-11-03T01:47:48.577Z,75.63
2018-11-03T01:51:52.082Z,75.62
2018-11-03T01:55:56.003Z,75.60
2018-11-03T01:59:59.809Z,75.00
2018-11-03T02:04:03.431Z,74.92
2018-11-03T02:08:07.197Z,74.97
2018-11-03T02:12:11.009Z,74.99
2018-11-03T02:16:14.466Z,75.29
2018-11-03T02:20:17.989Z,75.27
2018-11-03T02:24:21.930Z,75.18
2018-11-03T02:28:25.628Z,75.20
2018-11-03T02:32:29.526Z,75.17
2018-11-03T02:36:33.319Z,75.15
2018-11-03T02:40:37.260Z,75.45
2018-11-03T02:44:40.988Z,74.96
2018-11-03T02:48:44.598Z,74.76
2018-11-03T02:52:48.131Z,74.88
2018-11-03T02:56:52.058Z,74.76
2018-11-03T03:00:55.689Z,74.86
2018-11-03T03:04:59.169Z,75.15
2018-11-03T03:09:02.674Z,74.97
2018-11-03T03:13:06.227Z,74.87
2018-11-03T03:17:09.923Z,74.90
2018-11-03T03:21:13.594Z,75.20
2018-11-03T03:25:17.321Z,74.74
2018-11-03T03:29:21.231Z,74.79
2018-11-03T03:33:25.043Z,74.69
2018-11-03T03:37:28.825Z,74.75
2018-11-03T03:41:32.548Z,74.55
2018-11-03T03:45:36.292Z,74.59
2018-11-03T03:49:40.065Z,74.72
2018-11-03T03:53:43.896Z,74.67
2018-11-03T03:57:47.645Z,73.67
2018-11-03T04:01:51.433Z,74.45
2018-11-03T04:05:55.191Z,74.71
2018-11-03T04:09:58.925Z,74.97
2018-11-03T04:14:02.664Z,75.07
2018-11-03T04:18:06.592Z,74.72
2018-11-03T04:22:10.406Z,75.47
2018-11-03T04:26:14.120Z,75.34
2018-11-03T04:30:17.952Z,75.04
2018-11-03T04:34:21.797Z,75.45
2018-11-03T04:38:25.475Z,75.65
2018-11-03T04:42:29.180Z,75.68
2018-11-03T04:46:33.044Z,75.06
2018-11-03T04:50:36.832Z,75.25
2018-11-03T04:54:40.658Z,74.94
2018-11-03T04:58:44.400Z,75.27
2018-11-03T05:02:48.282Z,74.78
2018-11-03T05:06:52.018Z,74.93
2018-11-03T05:10:55.854Z,74.94
2018-11-03T05:14:59.682Z,74.47
2018-11-03T05:19:03.547Z,74.56
2018-11-03T05:23:07.348Z,74.17
2018-11-03T05:27:11.089Z,74.18
2018-11-03T05:31:14.860Z,74.09
2018-11-03T05:35:18.558Z,74.21
2018-11-03T05:39:22.295Z,74.19
2018-11-03T05:43:26.096Z,74.57
2018-11-03T05:47:29.854Z,74.57
2018-11-03T05:51:33.672Z,74.31
2018-11-03T05:55:37.436Z,74.56
2018-11-03T05:59:41.218Z,74.08
2018-11-03T06:03:44.880Z,74.27
2018-11-03T06:07:48.555Z,74.10
2018-11-03T06:11:52.369Z,74.28
2018-11-03T06:15:56.204Z,74.91
2018-11-03T06:19:59.889Z,74.35
2018-11-03T06:24:03.608Z,74.47
2018-11-03T06:28:07.411Z,74.58
2018-11-03T06:32:10.931Z,74.63
2018-11-03T06:36:14.490Z,74.64
2018-11-03T06:40:18.049Z,74.58
2018-11-03T06:44:21.589Z,74.66
2018-11-03T06:48:25.148Z,74.98
2018-11-03T06:52:28.679Z,74.42
2018-11-03T06:56:33.089Z,74.72
2018-11-03T07:00:36.668Z,75.09
2018-11-03T07:04:40.182Z,75.26
2018-11-03T07:08:43.689Z,75.12
2018-11-03T07:12:47.504Z,74.95
2018-11-03T07:16:50.872Z,74.97
2018-11-03T07:20:54.625Z,75.07
2018-11-03T07:24:58.151Z,74.91
2018-11-03T07:29:01.703Z,74.65
2018-11-03T07:33:05.583Z,74.65
2018-11-03T07:37:09.201Z,74.62
2018-11-03T07:41:12.800Z,74.42
2018-11-03T07:45:16.545Z,74.64
2018-11-03T07:49:20.316Z,74.61
2018-11-03T07:53:23.944Z,74.48
2018-11-03T07:57:27.464Z,74.30
2018-11-03T08:01:31.069Z,74.13
2018-11-03T08:05:34.538Z,73.80
2018-11-03T08:09:38.107Z,73.99
2018-11-03T08:13:41.917Z,74.05
2018-11-03T08:17:45.545Z,73.81
2018-11-03T08:21:49.275Z,74.28
2018-11-03T08:25:52.885Z,74.14
2018-11-03T08:29:56.486Z,73.47
2018-11-03T08:34:00.342Z,73.64
2018-11-03T08:38:03.842Z,73.24
2018-11-03T08:42:07.489Z,73.25
2018-11-03T08:46:10.967Z,73.50
2018-11-03T08:50:14.554Z,73.38
2018-11-03T08:54:18.012Z,73.16
2018-11-03T08:58:21.481Z,73.38
2018-11-03T09:02:24.981Z,73.22
2018-11-03T09:06:28.804Z,73.25
2018-11-03T09:10:32.355Z,72.82
2018-11-03T09:14:35.882Z,72.48
2018-11-03T09:18:39.664Z,72.09
2018-11-03T09:22:43.265Z,71.55
2018-11-03T09:26:47.255Z,71.96
2018-11-03T09:30:50.781Z,71.46
2018-11-03T09:34:54.284Z,71.05
2018-11-03T09:38:57.832Z,71.34
2018-11-03T09:43:01.736Z,71.55
2018-11-03T09:47:05.382Z,71.07
2018-11-03T09:51:08.989Z,71.14
2018-11-03T09:55:14.974Z,71.37
2018-11-03T09:59:18.820Z,71.22
2018-11-03T10:03:22.770Z,70.52
2018-11-03T10:07:26.417Z,69.89
2018-11-03T10:11:30.454Z,70.58
2018-11-03T10:15:33.966Z,70.57
2018-11-03T10:19:37.473Z,70.76
2018-11-03T10:23:41.214Z,70.50
2018-11-03T10:27:45.461Z,70.47
2018-11-03T10:31:48.964Z,70.44
2018-11-03T10:35:52.646Z,70.73
2018-11-03T10:39:56.167Z,70.63
2018-11-03T10:43:59.841Z,70.82
2018-11-03T10:48:03.477Z,70.77
2018-11-03T10:52:07.307Z,70.62
2018-11-03T10:56:10.850Z,70.78
2018-11-03T11:00:22.809Z,70.47
2018-11-03T11:04:31.783Z,70.91
2018-11-03T11:08:40.798Z,70.69
2018-11-03T11:12:46.487Z,70.60
2018-11-03T11:16:50.115Z,70.80
2018-11-03T11:20:53.593Z,71.03
2018-11-03T11:24:57.306Z,71.25
2018-11-03T11:29:00.988Z,71.34
2018-11-03T11:33:05.707Z,71.37
2018-11-03T11:37:09.231Z,71.29
2018-11-03T11:41:12.873Z,71.80
2018-11-03T11:45:16.429Z,71.52
2018-11-03T11:49:20.213Z,71.48
2018-11-03T11:53:24.047Z,71.65
2018-11-03T11:57:27.581Z,72.34
2018-11-03T12:01:31.305Z,71.85
2018-11-03T12:05:35.239Z,71.91
2018-11-03T12:09:39.278Z,72.13
2018-11-03T12:13:42.806Z,72.13
2018-11-03T12:17:46.382Z,72.63
2018-11-03T12:21:50.016Z,71.90
2018-11-03T12:25:53.597Z,71.95
2018-11-03T12:29:57.051Z,72.15
2018-11-03T12:34:00.659Z,72.32
2018-11-03T12:38:04.312Z,72.27
2018-11-03T12:42:07.999Z,72.34
2018-11-03T12:46:11.495Z,71.91
2018-11-03T12:50:16.479Z,71.99
2018-11-03T12:54:19.940Z,71.86
2018-11-03T12:58:23.544Z,71.88
2018-11-03T13:02:27.277Z,72.05
2018-11-03T13:06:31.040Z,71.96
2018-11-03T13:10:34.800Z,71.79
2018-11-03T13:14:38.575Z,72.15
2018-11-03T13:18:42.133Z,72.05
2018-11-03T13:22:45.668Z,71.83
2018-11-03T13:26:49.361Z,71.96
2018-11-03T13:30:53.859Z,72.11
2018-11-03T13:34:57.481Z,72.00
2018-11-03T13:39:01.128Z,72.20
2018-11-03T13:43:04.844Z,72.67
2018-11-03T13:47:08.564Z,72.92
2018-11-03T13:51:12.667Z,72.91
2018-11-03T13:55:16.178Z,72.98
2018-11-03T13:59:19.676Z,72.98
2018-11-03T14:03:23.428Z,72.91
2018-11-03T14:07:26.929Z,73.14
2018-11-03T14:11:30.736Z,72.84
2018-11-03T14:15:34.360Z,72.63
2018-11-03T14:19:37.890Z,72.83
2018-11-03T14:23:42.288Z,73.15
2018-11-03T14:27:47.225Z,72.68
2018-11-03T14:31:50.771Z,73.00
2018-11-03T14:35:54.532Z,72.84
2018-11-03T14:39:58.783Z,72.94
2018-11-03T14:44:02.346Z,73.10
2018-11-03T14:48:06.770Z,72.99
2018-11-03T14:52:10.952Z,72.84
2018-11-03T14:56:15.572Z,72.94
2018-11-03T15:00:19.026Z,73.07
2018-11-03T15:04:22.546Z,73.08
2018-11-03T15:08:26.195Z,72.73
2018-11-03T15:12:30.154Z,72.99
2018-11-03T15:16:34.068Z,72.81
2018-11-03T15:20:38.071Z,72.77
2018-11-03T15:24:41.565Z,72.76
2018-11-03T15:28:45.833Z,73.08
2018-11-03T15:32:49.520Z,73.22
2018-11-03T15:36:53.051Z,73.14
2018-11-03T15:40:56.750Z,73.30
2018-11-03T15:45:00.241Z,73.35
2018-11-03T15:49:03.770Z,73.31
2018-11-03T15:53:07.218Z,73.26
2018-11-03T15:57:10.719Z,73.36
2018-11-03T16:01:14.190Z,73.82
2018-11-03T16:05:18.002Z,73.57
2018-11-03T16:09:21.470Z,73.75
2018-11-03T16:13:24.993Z,73.93
2018-11-03T16:17:28.742Z,74.15
2018-11-03T16:21:32.606Z,73.98
2018-11-03T16:25:36.119Z,74.21
2018-11-03T16:29:39.624Z,74.38
2018-11-03T16:33:43.303Z,74.49
2018-11-03T16:37:46.787Z,74.90
2018-11-03T16:41:50.378Z,75.18
2018-11-03T16:45:53.914Z,75.35
2018-11-03T16:49:57.930Z,75.05
2018-11-03T16:54:01.452Z,75.31
2018-11-03T16:58:05.255Z,75.55
2018-11-03T17:02:09.031Z,75.59
2018-11-03T17:06:12.745Z,75.12
2018-11-03T17:10:16.649Z,75.63
2018-11-03T17:14:20.290Z,76.06
2018-11-03T17:18:24.236Z,76.00
2018-11-03T17:22:27.846Z,75.81
2018-11-03T17:26:31.523Z,76.36
2018-11-03T17:30:35.083Z,76.03
2018-11-03T17:34:43.280Z,76.58
2018-11-03T17:38:47.002Z,76.43
2018-11-03T17:42:50.736Z,76.43
2018-11-03T17:46:54.460Z,76.65
2018-11-03T17:50:59.578Z,76.81
2018-11-03T17:55:03.382Z,76.93
2018-11-03T17:59:07.098Z,76.87
2018-11-03T18:03:10.845Z,77.21
2018-11-03T18:07:14.588Z,77.06
2018-11-03T18:15:40.011Z,77.16
2018-11-03T18:19:45.392Z,77.46
2018-11-03T18:23:48.995Z,77.28
2018-11-03T18:27:56.631Z,77.95
2018-11-03T18:32:07.991Z,77.75
2018-11-03T18:36:11.926Z,77.93
2018-11-03T18:40:16.989Z,78.43
2018-11-03T18:44:20.724Z,78.43
2018-11-03T18:48:24.188Z,79.10
2018-11-03T18:52:27.777Z,78.89
2018-11-03T18:56:31.253Z,79.42
2018-11-03T19:00:35.018Z,79.57
2018-11-03T19:04:38.808Z,80.15
2018-11-03T19:08:42.329Z,80.44
2018-11-03T19:12:45.962Z,80.61
2018-11-03T19:16:49.584Z,80.25
2018-11-03T19:20:53.328Z,80.42
2018-11-03T19:24:56.979Z,80.65
2018-11-03T19:29:00.502Z,80.96
2018-11-03T19:33:03.999Z,80.91
2018-11-03T19:37:07.689Z,81.22
2018-11-03T19:41:11.262Z,81.75
2018-11-03T19:45:15.028Z,81.59
2018-11-03T19:49:18.546Z,81.33
2018-11-03T19:53:22.158Z,81.79
2018-11-03T19:57:25.929Z,81.33
2018-11-03T20:01:29.487Z,81.38
2018-11-03T20:05:33.140Z,81.21
2018-11-03T20:09:36.802Z,81.14
2018-11-03T20:13:40.295Z,80.79
2018-11-03T20:17:43.992Z,80.96
2018-11-03T20:21:47.650Z,80.85
2018-11-03T20:25:51.295Z,80.80
2018-11-03T20:29:54.998Z,80.62
2018-11-03T20:33:58.606Z,80.49
2018-11-03T20:38:02.094Z,80.24
2018-11-03T20:42:06.059Z,80.17
2018-11-03T20:46:09.513Z,80.03
2018-11-03T20:50:14.173Z,80.23
2018-11-03T20:54:17.609Z,79.93
2018-11-03T20:58:21.148Z,80.29
2018-11-03T21:02:24.745Z,80.15
2018-11-03T21:06:28.248Z,80.25
2018-11-03T21:10:31.937Z,80.42
2018-11-03T21:14:35.522Z,80.25
2018-11-03T21:18:39.258Z,80.17
2018-11-03T21:22:42.931Z,80.32
2018-11-03T21:26:46.443Z,80.37
2018-11-03T21:30:50.081Z,80.25
2018-11-03T21:34:53.603Z,80.53
2018-11-03T21:38:57.404Z,80.08
2018-11-03T21:43:01.302Z,80.56
2018-11-03T21:47:05.132Z,80.26
2018-11-03T21:51:08.743Z,80.40
2018-11-03T21:55:12.470Z,80.36
2018-11-03T21:59:16.070Z,80.34
2018-11-03T22:03:19.682Z,80.05
2018-11-03T22:07:23.408Z,80.14
2018-11-03T22:11:26.927Z,80.29
2018-11-03T22:15:30.577Z,80.25
2018-11-03T22:19:34.319Z,80.84
2018-11-03T22:23:37.835Z,80.32
2018-11-03T22:27:41.391Z,80.17
2018-11-03T22:31:45.104Z,80.22
2018-11-03T22:35:48.594Z,80.82
2018-11-03T22:39:52.225Z,80.74
2018-11-03T22:43:56.007Z,80.42
2018-11-03T22:47:59.558Z,80.48
2018-11-03T22:52:06.027Z,80.50
2018-11-03T22:56:09.719Z,80.30
2018-11-03T23:00:14.300Z,80.33
2018-11-03T23:04:17.956Z,80.58
2018-11-03T23:08:21.576Z,80.75
2018-11-03T23:12:25.257Z,80.41
2018-11-03T23:16:28.887Z,80.27
2018-11-03T23:20:32.430Z,80.31
2018-11-03T23:24:36.122Z,80.41
2018-11-03T23:28:39.573Z,81.06
2018-11-03T23:32:43.203Z,80.60
2018-11-03T23:36:46.946Z,81.07
2018-11-03T23:40:50.502Z,80.63
2018-11-03T23:44:54.092Z,81.03
2018-11-03T23:48:57.758Z,81.01
2018-11-03T23:53:01.324Z,80.62
2018-11-03T23:57:04.931Z,80.71
